createdAt,value
2022-11-24T00:01:15.695Z,6.60
2022-11-24T00:03:43.707Z,5.00
2022-11-24T00:06:15.211Z,4.70
2022-11-24T00:08:45.901Z,4.40
2022-11-24T00:11:15.302Z,5.20
2022-11-24T00:13:42.275Z,4.50
2022-11-24T00:16:17.951Z,5.20
2022-11-24T00:18:51.754Z,5.90
2022-11-24T00:21:19.709Z,5.40
2022-11-24T00:23:47.438Z,3.30
2022-11-24T00:26:15.387Z,6.20
2022-11-24T00:28:43.749Z,5.60
2022-11-24T00:31:30.676Z,5.30
2022-11-24T00:34:00.017Z,4.60
2022-11-24T00:36:30.031Z,4.10
2022-11-24T00:38:58.776Z,5.00
2022-11-24T00:41:30.134Z,4.60
2022-11-24T00:43:56.853Z,4.40
2022-11-24T00:46:25.578Z,6.10
2022-11-24T00:48:53.781Z,4.80
2022-11-24T00:51:22.837Z,5.00
2022-11-24T00:53:49.505Z,6.40
2022-11-24T00:56:16.335Z,5.10
2022-11-24T00:58:42.857Z,3.70
2022-11-24T01:01:13.221Z,4.70
2022-11-24T01:03:39.885Z,3.80
2022-11-24T01:06:21.631Z,5.20
2022-11-24T01:08:48.563Z,6.70
2022-11-24T01:11:23.330Z,4.50
2022-11-24T01:13:54.424Z,5.50
2022-11-24T01:16:22.811Z,4.70
2022-11-24T01:18:49.742Z,4.30
2022-11-24T01:21:17.228Z,4.20
2022-11-24T01:23:44.243Z,5.00
2022-11-24T01:26:13.093Z,4.50
2022-11-24T01:28:44.851Z,5.10
2022-11-24T01:31:14.263Z,5.70
2022-11-24T01:33:40.934Z,4.90
2022-11-24T01:36:07.606Z,5.20
2022-11-24T01:38:34.138Z,6.70
2022-11-24T01:41:24.157Z,6.60
2022-11-24T01:43:52.302Z,3.40
2022-11-24T01:46:24.190Z,5.60
2022-11-24T01:49:32.631Z,5.80
2022-11-24T01:52:06.794Z,6.40
2022-11-24T01:54:37.749Z,6.50
2022-11-24T01:57:13.978Z,3.40
2022-11-24T01:59:40.862Z,4.50
2022-11-24T02:02:08.229Z,7.00
2022-11-24T02:04:36.077Z,4.70
2022-11-24T02:07:05.771Z,7.10
2022-11-24T02:10:00.957Z,5.80
2022-11-24T02:12:28.558Z,7.20
2022-11-24T02:14:56.218Z,7.30
2022-11-24T02:17:24.459Z,8.70
2022-11-24T02:20:20.345Z,5.80
2022-11-24T02:22:55.106Z,6.90
2022-11-24T02:25:31.200Z,4.30
2022-11-24T02:28:00.669Z,8.40
2022-11-24T02:30:27.543Z,7.00
2022-11-24T02:32:54.354Z,7.70
2022-11-24T02:35:22.387Z,8.10
2022-11-24T02:37:49.149Z,7.80
2022-11-24T02:40:24.940Z,6.60
2022-11-24T02:42:58.838Z,7.50
2022-11-24T02:45:26.670Z,7.50
2022-11-24T02:47:53.167Z,6.40
2022-11-24T02:50:19.747Z,6.20
2022-11-24T02:52:46.234Z,5.30
2022-11-24T02:55:12.770Z,5.00
2022-11-24T02:57:39.286Z,6.10
2022-11-24T03:00:06.316Z,8.40
2022-11-24T03:02:35.811Z,6.30
2022-11-24T03:05:02.340Z,7.00
2022-11-24T03:07:29.011Z,5.90
2022-11-24T03:09:55.551Z,8.80
2022-11-24T03:12:22.120Z,5.70
2022-11-24T03:14:48.627Z,7.40
2022-11-24T03:17:18.015Z,7.70
2022-11-24T03:19:44.528Z,8.90
2022-11-24T03:22:13.005Z,5.00
2022-11-24T03:24:39.634Z,8.70
2022-11-24T03:27:06.334Z,5.90
2022-11-24T03:29:32.868Z,6.30
2022-11-24T03:31:59.556Z,6.40
2022-11-24T03:34:26.266Z,7.80
2022-11-24T03:36:52.740Z,7.20
2022-11-24T03:39:19.274Z,8.00
2022-11-24T03:41:45.857Z,9.40
2022-11-24T03:44:12.367Z,6.30
2022-11-24T03:46:38.990Z,5.90
2022-11-24T03:49:05.670Z,7.40
2022-11-24T03:51:32.144Z,7.40
2022-11-24T03:53:58.600Z,7.00
2022-11-24T03:56:25.110Z,5.80
2022-11-24T03:58:51.890Z,10.60
2022-11-24T04:01:18.590Z,7.20
2022-11-24T04:03:45.166Z,7.40
2022-11-24T04:06:11.811Z,8.70
2022-11-24T04:08:38.480Z,8.90
2022-11-24T04:11:08.278Z,7.70
2022-11-24T04:13:34.772Z,9.00
2022-11-24T04:16:06.228Z,9.60
2022-11-24T04:18:32.751Z,7.50
2022-11-24T04:20:59.387Z,7.00
2022-11-24T04:23:25.865Z,7.50
2022-11-24T04:25:52.346Z,8.30
2022-11-24T04:28:18.833Z,7.10
2022-11-24T04:30:45.488Z,7.60
2022-11-24T04:33:15.575Z,9.10
2022-11-24T04:35:42.152Z,7.20
2022-11-24T04:38:08.863Z,6.20
2022-11-24T04:40:35.604Z,7.90
2022-11-24T04:43:02.099Z,6.20
2022-11-24T04:45:28.654Z,8.90
2022-11-24T04:47:55.129Z,8.70
2022-11-24T04:50:21.984Z,11.60
2022-11-24T04:52:48.481Z,10.00
2022-11-24T04:55:15.037Z,7.80
2022-11-24T04:57:41.631Z,9.20
2022-11-24T05:00:12.040Z,8.90
2022-11-24T05:02:38.776Z,9.00
2022-11-24T05:05:08.298Z,8.60
2022-11-24T05:07:35.135Z,7.30
2022-11-24T05:10:20.178Z,6.90
2022-11-24T05:12:54.699Z,10.80
2022-11-24T05:15:21.098Z,8.40
2022-11-24T05:17:47.526Z,10.50
2022-11-24T05:20:14.063Z,8.20
2022-11-24T05:22:40.483Z,7.40
2022-11-24T05:25:07.169Z,9.00
2022-11-24T05:27:33.572Z,6.00
2022-11-24T05:30:00.021Z,7.30
2022-11-24T05:32:26.622Z,9.10
2022-11-24T05:34:53.859Z,8.90
2022-11-24T05:37:21.534Z,6.90
2022-11-24T05:39:48.030Z,8.10
2022-11-24T05:42:33.086Z,9.10
2022-11-24T05:44:59.756Z,9.30
2022-11-24T05:47:26.431Z,7.10
2022-11-24T05:49:52.869Z,7.70
2022-11-24T05:52:19.305Z,10.00
2022-11-24T05:54:45.782Z,9.00
2022-11-24T05:57:13.148Z,8.00
2022-11-24T05:59:39.590Z,9.60
2022-11-24T06:02:06.070Z,9.30
2022-11-24T06:04:33.129Z,8.80
2022-11-24T06:06:59.940Z,10.10
2022-11-24T06:09:26.944Z,11.60
2022-11-24T06:11:53.423Z,10.00
2022-11-24T06:14:19.893Z,8.20
2022-11-24T06:16:47.152Z,11.70
2022-11-24T06:19:13.661Z,10.80
2022-11-24T06:21:43.055Z,11.10
2022-11-24T06:24:09.534Z,8.10
2022-11-24T06:26:38.063Z,8.10
2022-11-24T06:29:04.567Z,9.50
2022-11-24T06:31:31.284Z,8.90
2022-11-24T06:34:01.125Z,8.30
2022-11-24T06:36:27.770Z,9.30
2022-11-24T06:38:54.603Z,10.40
2022-11-24T06:41:21.000Z,9.90
2022-11-24T06:43:47.934Z,9.00
2022-11-24T06:46:14.400Z,9.30
2022-11-24T06:48:40.795Z,9.50
2022-11-24T06:51:10.392Z,12.20
2022-11-24T06:53:40.601Z,11.60
2022-11-24T06:56:15.600Z,10.20
2022-11-24T06:58:45.711Z,9.20
2022-11-24T07:01:20.313Z,10.20
2022-11-24T07:03:48.201Z,7.60
2022-11-24T07:06:16.251Z,6.80
2022-11-24T07:08:42.898Z,11.30
2022-11-24T07:11:15.440Z,9.50
2022-11-24T07:13:43.347Z,7.20
2022-11-24T07:16:21.539Z,8.60
2022-11-24T07:18:49.858Z,8.90
2022-11-24T07:21:16.426Z,11.50
2022-11-24T07:23:43.094Z,10.90
2022-11-24T07:26:10.838Z,11.50
2022-11-24T07:28:37.803Z,9.60
2022-11-24T07:31:13.324Z,10.80
2022-11-24T07:33:40.340Z,11.30
2022-11-24T07:36:08.165Z,9.90
2022-11-24T07:38:35.556Z,9.10
2022-11-24T07:41:07.173Z,8.70
2022-11-24T07:43:35.533Z,9.60
2022-11-24T07:46:02.422Z,9.60
2022-11-24T07:48:28.868Z,9.40
2022-11-24T07:50:56.405Z,13.10
2022-11-24T07:53:23.092Z,9.60
2022-11-24T07:55:58.117Z,12.50
2022-11-24T07:58:27.668Z,10.70
2022-11-24T08:00:57.841Z,9.10
2022-11-24T08:03:25.363Z,7.40
2022-11-24T08:06:22.402Z,10.00
2022-11-24T08:08:42.741Z,10.50
2022-11-24T08:11:12.092Z,11.90
2022-11-24T08:13:39.497Z,9.30
2022-11-24T08:16:08.307Z,8.90
2022-11-24T08:18:36.237Z,9.80
2022-11-24T08:21:06.865Z,10.80
2022-11-24T08:23:33.855Z,13.50
2022-11-24T08:26:08.989Z,8.10
2022-11-24T08:28:35.954Z,8.30
2022-11-24T08:31:07.779Z,12.50
2022-11-24T08:33:34.568Z,12.10
2022-11-24T08:36:06.816Z,8.50
2022-11-24T08:38:33.373Z,10.90
2022-11-24T08:41:04.948Z,10.10
2022-11-24T08:43:31.826Z,10.60
2022-11-24T08:46:13.868Z,11.50
2022-11-24T08:48:41.444Z,10.70
2022-11-24T08:51:10.894Z,10.70
2022-11-24T08:53:37.614Z,9.60
2022-11-24T08:56:04.862Z,7.80
2022-11-24T08:58:31.992Z,13.10
2022-11-24T09:01:07.412Z,11.90
2022-11-24T09:03:34.559Z,13.00
2022-11-24T09:06:02.367Z,10.80
2022-11-24T09:08:32.529Z,9.90
2022-11-24T09:11:00.716Z,13.20
2022-11-24T09:13:27.116Z,11.10
2022-11-24T09:15:53.638Z,10.80
2022-11-24T09:18:20.000Z,10.70
2022-11-24T09:20:46.370Z,12.90
2022-11-24T09:23:12.941Z,11.80
2022-11-24T09:25:39.290Z,12.20
2022-11-24T09:28:05.701Z,10.60
2022-11-24T09:30:32.221Z,13.30
2022-11-24T09:32:58.710Z,11.20
2022-11-24T09:35:25.125Z,12.20
2022-11-24T09:37:51.618Z,10.80
2022-11-24T09:40:18.301Z,14.00
2022-11-24T09:42:59.355Z,12.50
2022-11-24T09:46:04.078Z,11.20
2022-11-24T09:48:36.072Z,12.80
2022-11-24T09:51:04.303Z,11.80
2022-11-24T09:53:30.690Z,11.00
2022-11-24T09:56:02.314Z,12.90
2022-11-24T09:58:50.624Z,8.70
2022-11-24T10:01:20.151Z,10.20
2022-11-24T10:03:54.314Z,7.80
2022-11-24T10:06:38.015Z,8.70
2022-11-24T10:09:15.434Z,10.30
2022-11-24T10:12:15.891Z,8.70
2022-11-24T10:15:10.877Z,10.60
2022-11-24T10:18:23.761Z,11.60
2022-11-24T10:21:23.965Z,6.30
2022-11-24T10:24:09.061Z,9.50
2022-11-24T10:26:44.156Z,9.00
2022-11-24T10:29:20.273Z,10.70
2022-11-24T10:31:52.179Z,10.10
2022-11-24T10:34:25.112Z,10.40
2022-11-24T10:37:06.930Z,9.90
2022-11-24T10:39:50.519Z,9.80
2022-11-24T10:42:37.741Z,10.10
2022-11-24T10:45:16.457Z,9.50
2022-11-24T10:47:44.042Z,11.10
2022-11-24T10:50:27.032Z,10.60
2022-11-24T10:53:08.310Z,9.80
2022-11-24T10:55:56.648Z,11.30
2022-11-24T10:58:37.084Z,12.40
2022-11-24T11:01:13.664Z,10.00
2022-11-24T11:03:48.869Z,9.60
2022-11-24T11:06:23.221Z,9.70
2022-11-24T11:08:50.445Z,8.40
2022-11-24T11:11:29.059Z,12.90
2022-11-24T11:14:04.448Z,10.60
2022-11-24T11:16:43.463Z,12.50
2022-11-24T11:19:56.969Z,11.90
2022-11-24T11:22:28.923Z,10.40
2022-11-24T11:25:17.262Z,10.40
2022-11-24T11:27:44.561Z,8.30
2022-11-24T11:36:13.412Z,8.50
2022-11-24T11:38:41.435Z,9.30
2022-11-24T11:41:19.187Z,7.80
2022-11-24T11:43:49.879Z,7.60
2022-11-24T11:46:17.009Z,8.80
2022-11-24T11:48:46.622Z,10.80
2022-11-24T11:51:30.765Z,11.60
2022-11-24T11:54:25.273Z,9.90
2022-11-24T11:57:06.884Z,10.70
2022-11-24T11:59:54.982Z,9.90
2022-11-24T12:02:56.768Z,9.90
2022-11-24T12:05:52.615Z,10.10
2022-11-24T12:09:03.172Z,11.60
2022-11-24T12:11:40.314Z,8.50
2022-11-24T12:14:44.569Z,8.00
2022-11-24T12:17:23.020Z,13.30
2022-11-24T12:19:57.308Z,9.90
2022-11-24T12:22:29.019Z,12.70
2022-11-24T12:25:11.121Z,8.90
2022-11-24T12:27:49.544Z,10.20
2022-11-24T12:30:18.818Z,12.40
2022-11-24T12:33:16.954Z,11.30
2022-11-24T12:35:46.489Z,10.50
2022-11-24T12:38:31.260Z,8.90
2022-11-24T12:41:41.024Z,12.30
2022-11-24T12:44:27.581Z,8.90
2022-11-24T12:47:10.903Z,9.00
2022-11-24T12:50:00.196Z,9.70
2022-11-24T12:52:31.932Z,11.30
2022-11-24T12:54:59.674Z,7.40
2022-11-24T12:57:42.337Z,9.20
2022-11-24T13:00:38.136Z,6.00
2022-11-24T13:03:21.182Z,8.90
2022-11-24T13:05:50.601Z,10.10
2022-11-24T13:08:17.213Z,7.70
2022-11-24T13:10:55.913Z,6.80
2022-11-24T13:13:27.361Z,8.90
2022-11-24T13:17:06.244Z,10.10
2022-11-24T13:18:45.014Z,5.30
2022-11-24T13:21:50.326Z,7.80
2022-11-24T13:24:16.985Z,7.20
2022-11-24T13:27:15.212Z,6.70
2022-11-24T13:29:44.330Z,5.20
2022-11-24T13:32:19.939Z,5.00
2022-11-24T13:34:54.650Z,5.00
2022-11-24T13:37:35.330Z,5.40
2022-11-24T13:40:11.242Z,5.80
2022-11-24T13:43:07.597Z,4.70
2022-11-24T13:45:40.565Z,5.50
2022-11-24T13:48:33.622Z,6.70
2022-11-24T13:51:01.422Z,5.10
2022-11-24T13:53:36.844Z,5.20
2022-11-24T13:56:06.216Z,6.20
2022-11-24T13:58:42.119Z,4.40
2022-11-24T14:01:20.255Z,4.30
2022-11-24T14:04:28.222Z,4.90
2022-11-24T14:06:46.219Z,5.30
2022-11-24T14:09:22.703Z,6.50
2022-11-24T14:12:00.686Z,6.10
2022-11-24T14:14:27.523Z,5.50
2022-11-24T14:17:15.435Z,4.60
2022-11-24T14:19:43.771Z,10.10
2022-11-24T14:22:22.800Z,7.30
2022-11-24T14:24:55.140Z,10.90
2022-11-24T14:27:34.035Z,10.30
2022-11-24T14:30:16.683Z,8.60
2022-11-24T14:32:57.210Z,6.40
2022-11-24T14:35:31.255Z,7.20
2022-11-24T14:37:58.900Z,13.00
2022-11-24T14:40:41.268Z,7.10
2022-11-24T14:43:28.735Z,6.50
2022-11-24T14:46:05.910Z,8.50
2022-11-24T14:48:46.208Z,4.80
2022-11-24T14:51:24.946Z,7.00
2022-11-24T14:53:55.542Z,6.50
2022-11-24T14:56:36.766Z,6.50
2022-11-24T14:59:04.017Z,5.40
2022-11-24T15:01:33.692Z,6.10
2022-11-24T15:04:17.912Z,7.40
2022-11-24T15:07:06.735Z,4.90
2022-11-24T15:09:41.089Z,8.70
2022-11-24T15:12:18.128Z,7.20
2022-11-24T15:14:54.491Z,5.90
2022-11-24T15:17:27.589Z,6.40
2022-11-24T15:20:09.227Z,9.30
2022-11-24T15:22:41.567Z,10.50
2022-11-24T15:25:25.032Z,11.90
2022-11-24T15:27:52.006Z,13.30
2022-11-24T15:30:18.472Z,24.90
2022-11-24T15:32:53.113Z,9.50
2022-11-24T15:35:21.342Z,13.80
2022-11-24T15:37:47.765Z,8.50
2022-11-24T15:40:14.561Z,7.60
2022-11-24T15:42:41.166Z,7.10
2022-11-24T15:45:07.933Z,7.30
2022-11-24T15:47:49.866Z,9.20
2022-11-24T15:50:16.972Z,7.20
2022-11-24T15:52:44.378Z,8.10
2022-11-24T15:55:22.335Z,6.80
2022-11-24T15:57:49.407Z,7.60
2022-11-24T16:00:21.658Z,8.60
2022-11-24T16:02:48.963Z,9.30
2022-11-24T16:05:17.297Z,7.30
2022-11-24T16:07:44.374Z,8.50
2022-11-24T16:10:28.937Z,8.90
2022-11-24T16:12:55.378Z,6.80
2022-11-24T16:15:21.761Z,9.20
2022-11-24T16:17:48.413Z,7.70
2022-11-24T16:20:15.452Z,7.10
2022-11-24T16:22:42.024Z,9.10
2022-11-24T16:25:09.049Z,8.80
2022-11-24T16:27:35.590Z,7.70
2022-11-24T16:30:02.184Z,9.90
2022-11-24T16:32:28.679Z,9.90
2022-11-24T16:34:55.298Z,8.40
2022-11-24T16:37:22.300Z,6.80
2022-11-24T16:39:50.377Z,8.80
2022-11-24T16:42:17.452Z,8.00
2022-11-24T16:44:43.935Z,9.90
2022-11-24T16:47:12.638Z,9.90
2022-11-24T16:49:39.395Z,11.10
2022-11-24T16:52:05.770Z,8.20
2022-11-24T16:54:32.583Z,9.80
2022-11-24T16:56:59.451Z,10.30
2022-11-24T16:59:26.110Z,9.60
2022-11-24T17:01:52.623Z,10.40
2022-11-24T17:04:19.191Z,10.70
2022-11-24T17:06:45.621Z,12.80
2022-11-24T17:09:12.300Z,14.40
2022-11-24T17:11:38.752Z,20.30
2022-11-24T17:14:06.002Z,24.20
2022-11-24T17:16:32.487Z,23.30
2022-11-24T17:18:59.725Z,15.40
2022-11-24T17:21:27.704Z,11.30
2022-11-24T17:23:59.516Z,15.40
2022-11-24T17:26:27.043Z,14.90
2022-11-24T17:28:54.454Z,18.50
2022-11-24T17:31:29.446Z,13.60
2022-11-24T17:33:57.514Z,10.90
2022-11-24T17:36:24.343Z,10.90
2022-11-24T17:38:51.043Z,10.30
2022-11-24T17:41:19.155Z,10.00
2022-11-24T17:43:53.838Z,13.70
2022-11-24T17:46:20.355Z,12.30
2022-11-24T17:48:47.244Z,11.10
2022-11-24T17:51:19.544Z,23.70
2022-11-24T17:53:49.258Z,16.20
2022-11-24T17:56:17.918Z,11.50
2022-11-24T17:58:44.601Z,12.60
2022-11-24T18:01:12.779Z,11.90
2022-11-24T18:03:40.127Z,10.80
2022-11-24T18:06:13.665Z,10.30
2022-11-24T18:08:43.202Z,12.30
2022-11-24T18:11:12.856Z,12.90
2022-11-24T18:13:59.857Z,12.50
2022-11-24T18:16:28.109Z,11.70
2022-11-24T18:19:07.700Z,10.70
2022-11-24T18:21:35.571Z,12.80
2022-11-24T18:24:01.962Z,10.00
2022-11-24T18:26:28.696Z,11.20
2022-11-24T18:28:55.179Z,10.40
2022-11-24T18:31:22.378Z,11.00
2022-11-24T18:33:49.319Z,11.90
2022-11-24T18:36:18.462Z,11.00
2022-11-24T18:38:45.123Z,15.00
2022-11-24T18:41:13.643Z,13.50
2022-11-24T18:43:41.554Z,12.60
2022-11-24T18:46:11.910Z,12.50
2022-11-24T18:48:38.773Z,12.40
2022-11-24T18:51:05.666Z,12.90
2022-11-24T18:53:32.069Z,15.80
2022-11-24T18:55:59.410Z,13.00
2022-11-24T18:58:29.755Z,16.70
2022-11-24T19:01:09.204Z,16.70
2022-11-24T19:03:48.564Z,18.50
2022-11-24T19:06:24.690Z,17.10
2022-11-24T19:08:54.244Z,17.40
2022-11-24T19:11:28.132Z,19.90
2022-11-24T19:13:56.624Z,17.20
2022-11-24T19:16:24.424Z,16.00
2022-11-24T19:18:54.128Z,14.90
2022-11-24T19:21:22.368Z,14.50
2022-11-24T19:23:49.410Z,12.90
2022-11-24T19:26:15.936Z,12.60
2022-11-24T19:28:42.440Z,15.50
2022-11-24T19:31:13.642Z,15.50
2022-11-24T19:33:40.406Z,16.10
2022-11-24T19:36:11.706Z,18.20
2022-11-24T19:38:38.599Z,17.70
2022-11-24T19:41:13.803Z,19.80
2022-11-24T19:43:40.910Z,17.80
2022-11-24T19:46:08.364Z,18.90
2022-11-24T19:48:43.266Z,19.20
2022-11-24T19:51:30.752Z,17.50
2022-11-24T19:53:57.587Z,19.00
2022-11-24T19:56:26.035Z,19.70
2022-11-24T19:58:54.119Z,21.20
2022-11-24T20:01:32.030Z,20.10
2022-11-24T20:04:01.125Z,19.50
2022-11-24T20:06:29.571Z,18.20
2022-11-24T20:08:57.845Z,18.20
2022-11-24T20:11:24.508Z,20.00
2022-11-24T20:13:51.723Z,20.80
2022-11-24T20:16:26.494Z,21.50
2022-11-24T20:18:55.058Z,20.30
2022-11-24T20:21:24.231Z,19.00
2022-11-24T20:24:13.489Z,20.70
2022-11-24T20:26:51.628Z,23.80
2022-11-24T20:29:20.076Z,21.20
2022-11-24T20:31:49.353Z,19.50
2022-11-24T20:34:16.607Z,18.80
2022-11-24T20:36:44.790Z,22.00
2022-11-24T20:39:21.192Z,22.90
2022-11-24T20:41:47.916Z,26.40
2022-11-24T20:44:16.356Z,24.60
2022-11-24T20:46:44.282Z,24.10
2022-11-24T20:49:18.093Z,22.90
2022-11-24T20:51:47.178Z,23.20
2022-11-24T20:54:14.945Z,25.50
2022-11-24T20:56:43.738Z,23.10
2022-11-24T20:59:16.418Z,25.10
2022-11-24T21:01:45.661Z,26.40
2022-11-24T21:04:15.790Z,26.40
2022-11-24T21:06:42.607Z,26.30
2022-11-24T21:09:10.660Z,26.90
2022-11-24T21:11:38.431Z,23.80
2022-11-24T21:14:06.585Z,27.30
2022-11-24T21:16:35.009Z,26.80
2022-11-24T21:19:05.738Z,24.70
2022-11-24T21:21:35.136Z,29.00
2022-11-24T21:24:03.894Z,27.70
2022-11-24T21:26:30.326Z,26.90
2022-11-24T21:28:57.671Z,25.00
2022-11-24T21:31:24.357Z,24.10
2022-11-24T21:33:52.728Z,23.50
2022-11-24T21:36:22.290Z,25.40
2022-11-24T21:38:57.303Z,24.10
2022-11-24T21:41:26.236Z,23.00
2022-11-24T21:43:55.431Z,25.20
2022-11-24T21:46:22.639Z,23.80
2022-11-24T21:48:49.284Z,21.40
2022-11-24T21:51:18.209Z,23.80
2022-11-24T21:53:45.668Z,20.40
2022-11-24T21:56:15.338Z,23.40
2022-11-24T21:58:56.007Z,21.30
2022-11-24T22:01:25.966Z,21.00
2022-11-24T22:03:52.527Z,20.10
2022-11-24T22:06:20.184Z,21.40
2022-11-24T22:08:48.327Z,27.70
2022-11-24T22:11:15.812Z,30.40
2022-11-24T22:13:43.186Z,27.20
2022-11-24T22:16:12.357Z,27.90
2022-11-24T22:18:41.921Z,26.40
2022-11-24T22:21:23.791Z,28.80
2022-11-24T22:23:51.994Z,24.60
2022-11-24T22:26:21.178Z,23.40
2022-11-24T22:28:48.208Z,22.90
2022-11-24T22:31:16.433Z,23.70
2022-11-24T22:33:46.288Z,19.60
2022-11-24T22:36:14.684Z,20.30
2022-11-24T22:38:41.286Z,18.10
2022-11-24T22:41:13.734Z,20.20
2022-11-24T22:43:41.858Z,19.10
2022-11-24T22:46:16.846Z,16.30
2022-11-24T22:48:45.060Z,17.50
2022-11-24T22:51:13.808Z,20.40
2022-11-24T22:53:40.768Z,16.60
2022-11-24T22:56:10.911Z,18.90
2022-11-24T22:58:38.439Z,17.70
2022-11-24T23:01:13.863Z,15.60
2022-11-24T23:03:41.030Z,19.10
2022-11-24T23:06:14.437Z,18.10
2022-11-24T23:08:41.725Z,18.40
2022-11-24T23:11:12.664Z,19.10
2022-11-24T23:13:39.601Z,17.90
2022-11-24T23:16:11.347Z,16.90
2022-11-24T23:18:38.590Z,19.80
2022-11-24T23:21:17.052Z,21.80
2022-11-24T23:23:44.406Z,17.80
2022-11-24T23:26:13.838Z,17.50
2022-11-24T23:28:40.848Z,17.00
2022-11-24T23:31:12.760Z,15.60
2022-11-24T23:33:39.716Z,15.40
2022-11-24T23:36:11.821Z,18.20
2022-11-24T23:38:38.835Z,14.80
2022-11-24T23:41:07.912Z,14.70
2022-11-24T23:43:35.238Z,16.90
2022-11-24T23:46:14.848Z,14.30
2022-11-24T23:48:41.417Z,12.90
2022-11-24T23:51:12.350Z,13.40
2022-11-24T23:53:39.209Z,15.40
2022-11-24T23:56:06.242Z,13.90
2022-11-24T23:58:33.615Z,12.10
